サントス・デュモン空港の過去48時間の天気

サントス・デュモン空港 (Rio De Janeiro Aeroporto )

現在時刻: 1/22 22:23 -02 (1/23 00:23 UTC) 以下の時間は現地時間です。

過去48時間のMETAR気象情報
時間 風向 風速(m/s) 視程 気温(℃) 湿度(%) 気圧(hPa) 天気現象
22 22:00 5 10km以上 28 74 1017
22 21:00 南東 2 10km以上 27 79 1016
22 20:00 北北東 4 10km以上 27 84 1016
22 19:00 5 10km以上 28 79 1016
22 18:00 3 10km以上 29 66 1016
22 17:00 1 10km以上 29 58 1015
22 16:00 8 10km以上 27 74 1016
22 15:00 8 10km以上 28 74 1016
22 14:00 8 10km以上 28 74 1017
22 13:00 南南東 6 10km以上 28 74 1017
22 12:00 南南東 7 10km以上 27 79 1018
22 11:00 南東 3 10km以上 28 74 1018
22 10:00 不定 1 10km以上 28 70 1018
22 09:00 北東 2 10km以上 27 74 1017
22 08:00 北東 2 10km以上 26 79 1017
22 07:00 北東 2 10km以上 25 83 1017
22 06:50 北東 2 10km以上 25 83 1017
22 00:00 3 10km以上 25 83 1015
21 23:00 4 10km以上 25 83 1016
21 22:00 6 10km以上 26 79 1015
21 21:00 7 10km以上 26 79 1014
21 20:00 7 10km以上 27 74 1013
21 19:00 南南西 8 10km以上 27 70 1013
21 18:00 8 10km以上 28 70 1013
21 17:00 8 10km以上 29 66 1013
21 16:00 7 10km以上 28 74 1013
21 15:00 7 10km以上 27 79 1014
21 14:00 南南東 7 10km以上 27 79 1014
21 13:00 南南東 6 10km以上 28 74 1014
21 12:00 南南東 6 10km以上 27 79 1015
21 11:00 南東 4 10km以上 27 79 1015
21 10:00 南東 3 10km以上 26 84 1015
21 09:00 南東 1 10km以上 27 79 1015
21 08:00 南東 2 10km以上 25 83 1015
21 07:00 3 10km以上 24 89 1014
21 06:50 南南東 3 10km以上 24 89 1014
21 00:00 南南東 4 10km以上 24 89 1013
20 23:00 南南東 4 10km以上 25 83 1013
SBRJ 230000Z 08009KT 9999 FEW025 SCT100 28/23 Q1017
SBRJ 222300Z 14004KT 9999 SCT025 BKN100 27/23 Q1016
SBRJ 222200Z 03008KT 9999 SCT025 BKN100 27/24 Q1016
SBRJ 222100Z 36009KT 9999 SCT025 FEW030TCU BKN100 28/24 Q1016
SBRJ 222000Z 18006KT 9999 SCT025 FEW030TCU 29/22 Q1016
SBRJ 221900Z 09001KT 9999 SCT025 FEW030TCU 29/20 Q1015
SBRJ 221800Z 17015KT 9999 SCT025 FEW030TCU 27/22 Q1016
SBRJ 221700Z 18015KT 9999 FEW030 28/23 Q1016
SBRJ 221600Z 17015KT 9999 FEW030 28/23 Q1017
SBRJ 221500Z 16012KT 9999 FEW030 28/23 Q1017
SBRJ 221400Z 16013KT 9999 FEW030 27/23 Q1018
SBRJ 221300Z 14005KT 9999 FEW030 28/23 Q1018
SBRJ 221200Z VRB02KT 9999 FEW025 28/22 Q1018
SBRJ 221100Z 04004KT 9999 FEW025 27/22 Q1017
SBRJ 221000Z 05004KT 9999 FEW025 26/22 Q1017
SBRJ 220900Z 04004KT 9999 FEW025 25/22 Q1017
SBRJ 220850Z 04004KT 9999 FEW025 25/22 Q1017
SBRJ 220200Z 17006KT CAVOK 25/22 Q1015
SBRJ 220100Z 17008KT 9999 FEW040 25/22 Q1016
SBRJ 220000Z 18011KT 9999 FEW040 26/22 Q1015
SBRJ 212300Z 19013KT 9999 FEW030 SCT080 26/22 Q1014
SBRJ 212200Z 19013KT 9999 FEW030 27/22 Q1013
SBRJ 212100Z 20016KT 9999 FEW030 27/21 Q1013
SBRJ 212000Z 19015KT 9999 FEW030 28/22 Q1013
SBRJ 211900Z 19016KT 9999 FEW030 29/22 Q1013
SBRJ 211800Z 17014KT 9999 FEW030 28/23 Q1013
SBRJ 211700Z 17013KT 9999 FEW030 27/23 Q1014
SBRJ 211600Z 16013KT 9999 FEW025 27/23 Q1014
SBRJ 211500Z 16011KT 9999 FEW025 28/23 Q1014
SBRJ 211400Z 16011KT 9999 FEW025 27/23 Q1015
SBRJ 211300Z 14008KT 9999 FEW025 27/23 Q1015
SBRJ 211200Z 14006KT 9999 FEW025 26/23 Q1015
SBRJ 211100Z 13002KT 9999 FEW020 27/23 Q1015
SBRJ 211000Z 14004KT CAVOK 25/22 Q1015
SBRJ 210900Z 17005KT CAVOK 24/22 Q1014
SBRJ 210850Z 16005KT CAVOK 24/22 Q1014
SBRJ 210200Z 15007KT CAVOK 24/22 Q1013
SBRJ 210100Z 16008KT CAVOK 25/22 Q1013